Terminal Aerodrome Forecast
Issued by NWS

Home | Current Version | Previous Version | Text Only | Print | Product List | Glossary On
Versions: 1 2 3 4 5 6 7 8 9 10 11 12 13 14 15 16 17 18
000
FTUS43 KICT 270522
TAFSLN
TAF
KSLN 270522Z 2706/2806 14015KT P6SM SCT020 BKN035
      TEMPO 2706/2707 -TSRA SCT020 BKN035CB
     FM271000 26015KT P6SM BKN018
     FM271500 30016G24KT P6SM SCT020 BKN035=

USA.gov is the U.S. government's official web portal to all federal, state and local government web resources and services.